createdAt,value
2018-09-19T00:01:48.121Z,87.19
2018-09-19T00:04:17.300Z,87.53
2018-09-19T00:06:46.425Z,87.28
2018-09-19T00:09:15.616Z,87.24
2018-09-19T00:11:44.765Z,87.21
2018-09-19T00:14:13.965Z,87.51
2018-09-19T00:16:43.202Z,87.14
2018-09-19T00:19:12.327Z,86.90
2018-09-19T00:21:41.444Z,86.96
2018-09-19T00:24:10.603Z,86.53
2018-09-19T00:26:39.741Z,87.16
2018-09-19T00:29:09.036Z,86.65
2018-09-19T00:31:38.161Z,87.15
2018-09-19T00:34:07.282Z,86.85
2018-09-19T00:36:36.402Z,86.64
2018-09-19T00:39:07.327Z,86.91
2018-09-19T00:41:36.493Z,86.97
2018-09-19T00:44:05.645Z,87.10
2018-09-19T00:46:34.801Z,87.45
2018-09-19T00:49:03.941Z,87.56
2018-09-19T00:51:33.099Z,87.41
2018-09-19T00:54:02.299Z,87.99
2018-09-19T00:56:31.425Z,88.35
2018-09-19T00:59:00.579Z,88.48
2018-09-19T01:01:30.604Z,88.54
2018-09-19T01:03:59.714Z,88.72
2018-09-19T01:06:28.863Z,88.67
2018-09-19T01:08:58.131Z,88.95
2018-09-19T01:11:27.397Z,88.83
2018-09-19T01:13:56.506Z,89.62
2018-09-19T01:16:25.876Z,89.77
2018-09-19T01:18:56.577Z,89.92
2018-09-19T01:21:25.722Z,90.33
2018-09-19T01:23:55.092Z,90.48
2018-09-19T01:26:24.217Z,91.11
2018-09-19T01:28:53.405Z,91.54
2018-09-19T01:31:22.646Z,91.45
2018-09-19T01:33:51.780Z,91.95
2018-09-19T01:36:20.949Z,91.97
2018-09-19T01:38:50.113Z,92.35
2018-09-19T01:41:19.299Z,92.46
2018-09-19T01:43:48.543Z,92.33
2018-09-19T01:46:17.690Z,93.06
2018-09-19T01:48:46.863Z,93.11
2018-09-19T01:51:16.050Z,93.36
2018-09-19T01:53:45.271Z,94.36
2018-09-19T01:56:14.417Z,94.38
2018-09-19T01:58:43.565Z,94.35
2018-09-19T02:01:12.990Z,94.85
2018-09-19T02:03:42.160Z,95.04
2018-09-19T02:06:11.752Z,95.01
2018-09-19T02:08:40.933Z,95.74
2018-09-19T02:11:10.110Z,95.34
2018-09-19T02:13:39.283Z,95.55
2018-09-19T02:16:08.413Z,96.30
2018-09-19T02:18:37.590Z,95.95
2018-09-19T02:21:07.002Z,96.10
2018-09-19T02:23:36.213Z,96.23
2018-09-19T02:26:05.504Z,96.40
2018-09-19T02:28:34.755Z,97.14
2018-09-19T02:31:03.982Z,96.94
2018-09-19T02:33:33.120Z,96.54
2018-09-19T02:36:02.270Z,96.94
2018-09-19T02:38:31.453Z,96.95
2018-09-19T02:41:00.668Z,96.35
2018-09-19T02:43:29.882Z,96.80
2018-09-19T02:45:59.165Z,97.36
2018-09-19T02:48:28.610Z,96.83
2018-09-19T02:50:57.821Z,97.02
2018-09-19T02:53:27.442Z,97.07
2018-09-19T02:55:56.596Z,96.12
2018-09-19T02:58:26.316Z,96.57
2018-09-19T03:00:55.483Z,96.81
2018-09-19T03:03:24.634Z,96.98
2018-09-19T03:05:55.446Z,97.81
2018-09-19T03:08:24.659Z,97.26
2018-09-19T03:10:53.876Z,97.89
2018-09-19T03:13:23.133Z,98.17
2018-09-19T03:15:52.438Z,98.26
2018-09-19T03:18:21.695Z,98.03
2018-09-19T03:20:50.894Z,98.45
2018-09-19T03:23:20.283Z,97.95
2018-09-19T03:25:49.463Z,98.52
2018-09-19T03:28:18.608Z,98.99
2018-09-19T03:30:48.077Z,98.64
2018-09-19T03:33:17.194Z,98.76
2018-09-19T03:35:47.386Z,98.59
2018-09-19T03:38:16.644Z,99.06
2018-09-19T03:40:45.824Z,98.83
2018-09-19T03:43:14.994Z,98.67
2018-09-19T03:45:44.159Z,99.06
2018-09-19T03:48:13.323Z,99.09
2018-09-19T03:50:42.518Z,98.91
2018-09-19T03:53:12.033Z,98.80
2018-09-19T03:55:41.248Z,98.92
2018-09-19T03:58:10.512Z,99.26
2018-09-19T04:00:40.247Z,99.27
2018-09-19T04:03:16.145Z,99.01
2018-09-19T04:05:45.366Z,99.14
2018-09-19T04:08:14.795Z,99.23
2018-09-19T04:10:44.044Z,99.11
2018-09-19T04:13:13.349Z,99.37
2018-09-19T04:15:42.532Z,99.62
2018-09-19T04:18:11.706Z,99.78
2018-09-19T04:20:40.892Z,99.94
2018-09-19T04:23:10.123Z,99.93
2018-09-19T04:25:39.529Z,100.00
2018-09-19T04:28:08.792Z,99.77
2018-09-19T04:30:39.693Z,99.96
2018-09-19T04:33:09.218Z,100.00
2018-09-19T04:35:38.401Z,100.00
2018-09-19T04:38:07.584Z,100.00
2018-09-19T04:40:36.745Z,100.00
2018-09-19T04:43:06.197Z,100.00
2018-09-19T04:45:35.437Z,100.00
2018-09-19T04:48:04.666Z,100.00
2018-09-19T04:50:33.833Z,100.00
2018-09-19T04:53:02.997Z,100.00
2018-09-19T04:55:32.272Z,100.00
2018-09-19T04:58:01.534Z,100.00
2018-09-19T05:00:31.101Z,100.00
2018-09-19T05:03:00.345Z,100.00
2018-09-19T05:05:29.610Z,100.00
2018-09-19T05:07:58.878Z,100.00
2018-09-19T05:10:28.058Z,99.86
2018-09-19T05:12:57.329Z,99.94
2018-09-19T05:15:26.893Z,99.59
2018-09-19T05:17:56.105Z,99.60
2018-09-19T05:20:25.769Z,99.22
2018-09-19T05:22:54.994Z,99.39
2018-09-19T05:25:24.297Z,98.96
2018-09-19T05:27:53.598Z,99.32
2018-09-19T05:30:22.759Z,98.78
2018-09-19T05:32:51.990Z,98.78
2018-09-19T05:35:21.214Z,99.30
2018-09-19T05:37:50.374Z,98.76
2018-09-19T05:40:19.566Z,98.76
2018-09-19T05:42:48.766Z,97.93
2018-09-19T05:45:18.077Z,97.65
2018-09-19T05:47:47.288Z,96.48
2018-09-19T05:50:16.442Z,96.34
2018-09-19T05:52:45.685Z,95.53
2018-09-19T05:55:14.948Z,94.95
2018-09-19T05:57:44.072Z,95.49
2018-09-19T06:00:13.246Z,95.15
2018-09-19T06:02:42.556Z,94.76
2018-09-19T06:05:11.761Z,94.73
2018-09-19T06:07:40.924Z,94.84
2018-09-19T06:10:10.145Z,95.10
2018-09-19T06:12:39.435Z,94.90
2018-09-19T06:15:08.933Z,94.22
2018-09-19T06:17:38.254Z,92.83
2018-09-19T06:20:07.426Z,93.28
2018-09-19T06:22:36.754Z,92.97
2018-09-19T06:25:06.171Z,92.55
2018-09-19T06:27:35.417Z,91.75
2018-09-19T06:30:05.041Z,91.88
2018-09-19T06:32:34.225Z,91.88
2018-09-19T06:35:03.405Z,91.88
2018-09-19T06:37:32.605Z,90.97
2018-09-19T06:40:02.379Z,91.00
2018-09-19T06:42:31.497Z,90.88
2018-09-19T06:45:00.759Z,91.47
2018-09-19T06:47:29.964Z,91.42
2018-09-19T06:49:59.117Z,91.07
2018-09-19T06:52:28.426Z,91.54
2018-09-19T06:54:57.574Z,89.91
2018-09-19T06:57:28.296Z,89.76
2018-09-19T06:59:57.463Z,89.14
2018-09-19T07:02:26.671Z,88.92
2018-09-19T07:04:55.856Z,89.00
2018-09-19T07:07:25.011Z,89.71
2018-09-19T07:09:54.175Z,89.56
2018-09-19T07:12:23.393Z,88.29
2018-09-19T07:14:52.640Z,88.55
2018-09-19T07:17:21.900Z,87.18
2018-09-19T07:19:51.146Z,86.11
2018-09-19T07:22:20.484Z,86.04
2018-09-19T07:24:49.680Z,84.61
2018-09-19T07:27:18.946Z,84.73
2018-09-19T07:29:48.186Z,84.62
2018-09-19T07:32:17.376Z,84.18
2018-09-19T07:34:46.738Z,84.28
2018-09-19T07:37:16.153Z,82.61
2018-09-19T07:39:45.673Z,82.00
2018-09-19T07:42:15.030Z,80.59
2018-09-19T07:44:44.473Z,80.18
2018-09-19T07:47:13.672Z,79.67
2018-09-19T07:49:42.886Z,80.34
2018-09-19T07:52:11.979Z,79.52
2018-09-19T07:54:41.227Z,79.04
2018-09-19T07:57:10.440Z,79.58
2018-09-19T07:59:39.608Z,78.70
2018-09-19T08:02:08.850Z,78.41
2018-09-19T08:04:38.145Z,77.85
2018-09-19T08:07:07.585Z,77.64
2018-09-19T08:09:36.792Z,78.29
2018-09-19T08:12:05.952Z,76.97
2018-09-19T08:14:35.144Z,78.26
2018-09-19T08:17:04.516Z,77.54
2018-09-19T08:19:33.736Z,76.69
2018-09-19T08:22:02.959Z,77.33
2018-09-19T08:24:32.156Z,77.86
2018-09-19T08:27:01.301Z,78.58
2018-09-19T08:29:30.438Z,77.87
2018-09-19T08:31:59.693Z,77.51
2018-09-19T08:34:28.937Z,75.53
2018-09-19T08:36:58.125Z,76.35
2018-09-19T08:39:27.281Z,76.37
2018-09-19T08:41:56.528Z,73.52
2018-09-19T08:44:26.115Z,73.43
2018-09-19T08:46:55.854Z,72.29
2018-09-19T08:49:25.270Z,72.26
2018-09-19T08:51:54.597Z,71.19
2018-09-19T08:54:23.907Z,70.35
2018-09-19T08:56:53.204Z,71.31
2018-09-19T08:59:22.723Z,68.31
2018-09-19T09:01:51.890Z,69.15
2018-09-19T09:04:21.152Z,68.59
2018-09-19T09:06:50.365Z,70.16
2018-09-19T09:09:19.596Z,69.96
2018-09-19T09:11:48.854Z,70.02
2018-09-19T09:14:18.301Z,67.59
2018-09-19T09:16:47.821Z,68.17
2018-09-19T09:19:17.078Z,68.15
2018-09-19T09:21:46.346Z,68.10
2018-09-19T09:24:15.723Z,68.40
2018-09-19T09:26:44.898Z,67.42
2018-09-19T09:29:14.073Z,65.96
2018-09-19T09:31:43.536Z,62.72
2018-09-19T09:34:12.748Z,64.16
2018-09-19T09:36:42.004Z,62.53
2018-09-19T09:39:11.415Z,62.27
2018-09-19T09:41:40.098Z,61.76
2018-09-19T09:44:09.276Z,61.49
2018-09-19T09:46:38.914Z,60.48
2018-09-19T09:49:08.474Z,60.71
2018-09-19T09:51:37.757Z,60.81
2018-09-19T09:54:07.235Z,61.90
2018-09-19T09:56:36.420Z,62.12
2018-09-19T09:59:05.644Z,61.95
2018-09-19T10:01:35.229Z,61.79
2018-09-19T10:04:04.521Z,61.64
2018-09-19T10:06:33.768Z,62.30
2018-09-19T10:09:03.431Z,58.11
2018-09-19T10:11:33.786Z,58.67
2018-09-19T10:14:03.378Z,57.72
2018-09-19T10:16:33.072Z,58.28
2018-09-19T10:19:02.366Z,58.16
2018-09-19T10:21:32.075Z,58.93
2018-09-19T10:24:01.586Z,60.81
2018-09-19T10:26:30.857Z,59.66
2018-09-19T10:28:59.940Z,58.21
2018-09-19T10:31:29.500Z,59.78
2018-09-19T10:33:59.225Z,58.01
2018-09-19T10:36:28.383Z,56.57
2018-09-19T10:38:57.950Z,57.48
2018-09-19T10:41:27.228Z,58.42
2018-09-19T10:43:56.498Z,58.15
2018-09-19T10:46:25.997Z,57.62
2018-09-19T10:48:55.200Z,58.45
2018-09-19T10:51:24.424Z,58.53
2018-09-19T10:53:53.830Z,58.85
2018-09-19T10:56:23.008Z,58.09
2018-09-19T10:58:52.187Z,56.62
2018-09-19T11:01:21.664Z,56.98
2018-09-19T11:03:50.934Z,56.76
2018-09-19T11:06:20.197Z,57.67
2018-09-19T11:08:49.656Z,59.02
2018-09-19T11:11:18.805Z,60.54
2018-09-19T11:13:48.022Z,60.07
2018-09-19T11:16:17.421Z,58.30
2018-09-19T11:18:46.666Z,57.32
2018-09-19T11:21:15.842Z,56.89
2018-09-19T11:23:45.085Z,57.78
2018-09-19T11:26:14.293Z,58.07
2018-09-19T11:28:43.509Z,57.67
2018-09-19T11:31:12.846Z,56.75
2018-09-19T11:33:42.192Z,56.78
2018-09-19T11:36:11.493Z,55.67
2018-09-19T11:38:40.661Z,56.61
2018-09-19T11:41:10.112Z,55.35
2018-09-19T11:43:39.545Z,53.57
2018-09-19T11:46:08.665Z,54.34
2018-09-19T11:48:37.882Z,52.55
2018-09-19T11:51:07.367Z,51.74
2018-09-19T11:53:36.700Z,51.72
2018-09-19T11:56:05.959Z,52.77
2018-09-19T11:58:35.126Z,50.80
2018-09-19T12:01:04.321Z,51.82
2018-09-19T12:03:33.493Z,48.35
2018-09-19T12:06:02.692Z,50.76
2018-09-19T12:08:32.960Z,48.58
2018-09-19T12:11:02.233Z,48.71
2018-09-19T12:13:31.549Z,49.33
2018-09-19T12:16:00.692Z,51.89
2018-09-19T12:18:29.854Z,51.93
2018-09-19T12:20:59.582Z,52.95
2018-09-19T12:23:28.904Z,52.13
2018-09-19T12:25:58.325Z,52.86
2018-09-19T12:28:27.554Z,53.63
2018-09-19T12:30:56.700Z,53.91
2018-09-19T12:33:26.136Z,54.32
2018-09-19T12:35:55.285Z,53.59
2018-09-19T12:38:24.586Z,52.08
2018-09-19T12:40:55.295Z,54.62
2018-09-19T12:43:24.564Z,53.30
2018-09-19T12:45:54.175Z,53.81
2018-09-19T12:48:23.463Z,53.32
2018-09-19T12:50:52.985Z,54.17
2018-09-19T12:53:23.896Z,53.14
2018-09-19T12:55:54.057Z,53.17
2018-09-19T12:58:23.341Z,53.61
2018-09-19T13:00:52.946Z,54.71
2018-09-19T13:03:22.282Z,53.80
2018-09-19T13:05:51.621Z,52.72
2018-09-19T13:08:20.813Z,53.34
2018-09-19T13:10:51.729Z,53.14
2018-09-19T13:13:20.910Z,52.22
2018-09-19T13:15:50.232Z,52.22
2018-09-19T13:18:19.424Z,53.37
2018-09-19T13:20:48.639Z,51.37
2018-09-19T13:23:17.858Z,51.57
2018-09-19T13:25:47.196Z,53.77
2018-09-19T13:28:16.479Z,54.58
2018-09-19T13:30:45.809Z,54.06
2018-09-19T13:33:15.041Z,54.50
2018-09-19T13:35:44.200Z,54.69
2018-09-19T13:38:13.506Z,55.77
2018-09-19T13:40:42.712Z,57.07
2018-09-19T13:43:12.013Z,56.10
2018-09-19T13:45:41.278Z,56.94
2018-09-19T13:48:10.601Z,56.76
2018-09-19T13:50:59.485Z,57.26
2018-09-19T13:53:28.788Z,57.26
2018-09-19T13:55:58.000Z,56.88
2018-09-19T13:58:27.318Z,57.41
2018-09-19T14:00:56.508Z,56.53
2018-09-19T14:03:25.759Z,55.46
2018-09-19T14:05:55.049Z,55.00
2018-09-19T14:08:24.366Z,51.84
2018-09-19T14:10:53.603Z,52.28
2018-09-19T14:13:22.884Z,51.48
2018-09-19T14:15:52.441Z,51.15
2018-09-19T14:18:21.640Z,51.32
2018-09-19T14:20:51.070Z,50.98
2018-09-19T14:23:20.359Z,51.51
2018-09-19T14:25:49.608Z,52.02
2018-09-19T14:28:18.945Z,52.97
2018-09-19T14:30:48.360Z,52.34
2018-09-19T14:33:17.772Z,51.81
2018-09-19T14:35:47.009Z,53.08
2018-09-19T14:38:16.445Z,51.96
2018-09-19T14:40:45.637Z,51.88
2018-09-19T14:43:14.972Z,52.49
2018-09-19T14:45:44.272Z,52.10
2018-09-19T14:48:13.517Z,51.78
2018-09-19T14:50:42.674Z,52.50
2018-09-19T14:53:11.917Z,52.34
2018-09-19T14:55:41.095Z,51.86
2018-09-19T14:58:10.476Z,52.50
2018-09-19T15:00:39.821Z,53.36
2018-09-19T15:03:09.530Z,51.68
2018-09-19T15:05:38.726Z,52.34
2018-09-19T15:08:07.885Z,53.69
2018-09-19T15:10:37.244Z,53.15
2018-09-19T15:13:07.037Z,52.69
2018-09-19T15:15:36.313Z,54.47
2018-09-19T15:18:05.784Z,55.38
2018-09-19T15:20:34.962Z,55.74
2018-09-19T15:23:04.373Z,54.83
2018-09-19T15:25:33.522Z,55.30
2018-09-19T15:28:03.001Z,55.57
2018-09-19T15:30:32.229Z,54.19
2018-09-19T15:33:01.459Z,53.88
2018-09-19T15:35:30.985Z,55.05
2018-09-19T15:38:00.133Z,57.16
2018-09-19T15:40:30.165Z,57.62
2018-09-19T15:42:59.423Z,58.22
2018-09-19T15:45:29.028Z,57.02
2018-09-19T15:47:58.259Z,57.46
2018-09-19T15:50:27.401Z,57.77
2018-09-19T15:52:56.528Z,57.82
2018-09-19T15:55:25.713Z,58.21
2018-09-19T15:57:54.894Z,58.71
2018-09-19T16:00:24.210Z,59.28
2018-09-19T16:02:53.495Z,59.24
2018-09-19T16:05:22.729Z,58.87
2018-09-19T16:07:51.917Z,59.58
2018-09-19T16:10:21.066Z,60.33
2018-09-19T16:12:50.259Z,60.53
2018-09-19T16:15:19.420Z,60.56
2018-09-19T16:17:48.549Z,61.41
2018-09-19T16:20:17.774Z,61.98
2018-09-19T16:22:46.935Z,61.89
2018-09-19T16:25:16.449Z,62.09
2018-09-19T16:27:45.631Z,62.35
2018-09-19T16:30:14.761Z,62.30
2018-09-19T16:32:43.953Z,62.77
2018-09-19T16:35:13.370Z,63.68
2018-09-19T16:37:42.534Z,64.32
2018-09-19T16:40:11.779Z,64.58
2018-09-19T16:42:41.046Z,64.49
2018-09-19T16:45:10.190Z,64.80
2018-09-19T16:47:39.619Z,65.51
2018-09-19T16:50:08.857Z,66.13
2018-09-19T16:52:39.584Z,66.38
2018-09-19T16:55:09.240Z,67.65
2018-09-19T16:57:38.434Z,67.57
2018-09-19T17:00:08.345Z,67.58
2018-09-19T17:02:37.603Z,68.95
2018-09-19T17:05:07.084Z,68.66
2018-09-19T17:07:36.239Z,69.75
2018-09-19T17:10:05.574Z,70.53
2018-09-19T17:12:34.805Z,70.67
2018-09-19T17:15:04.184Z,71.69
2018-09-19T17:17:33.435Z,71.94
2018-09-19T17:20:02.627Z,71.78
2018-09-19T17:22:31.938Z,72.67
2018-09-19T17:25:01.134Z,72.58
2018-09-19T17:27:30.296Z,72.78
2018-09-19T17:30:00.009Z,73.16
2018-09-19T17:32:29.257Z,73.55
2018-09-19T17:34:58.482Z,73.88
2018-09-19T17:37:28.284Z,74.27
2018-09-19T17:39:57.504Z,75.03
2018-09-19T17:42:26.875Z,75.39
2018-09-19T17:44:56.043Z,75.82
2018-09-19T17:47:25.487Z,75.10
2018-09-19T17:49:54.692Z,76.33
2018-09-19T17:52:23.874Z,75.93
2018-09-19T17:54:53.645Z,76.13
2018-09-19T17:57:23.245Z,77.43
2018-09-19T17:59:52.457Z,77.80
2018-09-19T18:02:21.758Z,78.09
2018-09-19T18:04:50.986Z,78.46
2018-09-19T18:07:20.285Z,78.13
2018-09-19T18:09:50.518Z,78.95
2018-09-19T18:12:19.703Z,78.98
2018-09-19T18:14:49.004Z,78.84
2018-09-19T18:17:18.673Z,79.27
2018-09-19T18:19:48.027Z,79.16
2018-09-19T18:22:17.198Z,79.32
2018-09-19T18:24:46.374Z,79.35
2018-09-19T18:27:15.625Z,80.14
2018-09-19T18:29:44.688Z,81.15
2018-09-19T18:32:13.908Z,81.31
2018-09-19T18:34:43.025Z,81.99
2018-09-19T18:37:12.131Z,82.71
2018-09-19T18:39:41.318Z,83.09
2018-09-19T18:42:10.466Z,83.91
2018-09-19T18:44:39.614Z,84.35
2018-09-19T18:47:09.097Z,84.42
2018-09-19T18:49:38.253Z,84.57
2018-09-19T18:52:07.438Z,84.57
2018-09-19T18:54:36.717Z,85.35
2018-09-19T18:57:05.879Z,85.56
2018-09-19T18:59:35.089Z,85.69
2018-09-19T19:02:04.573Z,86.00
2018-09-19T19:04:33.758Z,86.16
2018-09-19T19:07:02.962Z,86.41
2018-09-19T19:09:32.479Z,87.26
2018-09-19T19:12:02.256Z,87.79
2018-09-19T19:14:31.445Z,87.57
2018-09-19T19:17:00.683Z,88.00
2018-09-19T19:19:29.984Z,88.06
2018-09-19T19:21:59.190Z,88.67
2018-09-19T19:24:28.353Z,88.95
2018-09-19T19:26:57.873Z,88.63
2018-09-19T19:29:27.014Z,89.08
2018-09-19T19:31:56.312Z,89.20
2018-09-19T19:34:25.490Z,89.59
2018-09-19T19:36:54.631Z,90.03
2018-09-19T19:39:24.137Z,90.10
2018-09-19T19:41:53.288Z,90.42
2018-09-19T19:44:23.506Z,90.19
2018-09-19T19:46:52.681Z,90.95
2018-09-19T19:49:21.919Z,91.73
2018-09-19T19:51:51.077Z,92.24
2018-09-19T19:54:20.315Z,92.88
2018-09-19T19:56:49.561Z,92.28
2018-09-19T19:59:18.753Z,92.04
2018-09-19T20:01:48.016Z,92.04
2018-09-19T20:04:17.184Z,91.95
2018-09-19T20:06:46.394Z,92.26
2018-09-19T20:09:15.581Z,91.75
2018-09-19T20:11:44.778Z,92.32
2018-09-19T20:14:13.895Z,92.13
2018-09-19T20:16:43.466Z,92.48
2018-09-19T20:19:13.022Z,92.40
2018-09-19T20:21:42.188Z,91.96
2018-09-19T20:24:11.457Z,92.42
2018-09-19T20:26:40.548Z,92.42
2018-09-19T20:29:10.355Z,92.43
2018-09-19T20:31:39.557Z,92.90
2018-09-19T20:34:08.829Z,92.63
2018-09-19T20:36:37.965Z,94.14
2018-09-19T20:39:08.853Z,94.76
2018-09-19T20:41:38.345Z,93.99
2018-09-19T20:44:07.642Z,93.89
2018-09-19T20:46:36.784Z,94.58
2018-09-19T20:49:06.058Z,94.19
2018-09-19T20:51:35.442Z,94.34
2018-09-19T20:54:04.799Z,94.32
2018-09-19T20:56:34.051Z,94.64
2018-09-19T20:59:03.328Z,94.34
2018-09-19T21:01:32.522Z,95.28
2018-09-19T21:04:01.682Z,95.26
2018-09-19T21:06:30.934Z,95.56
2018-09-19T21:09:00.382Z,95.08
2018-09-19T21:11:29.573Z,95.43
2018-09-19T21:13:58.741Z,96.06
2018-09-19T21:16:28.026Z,96.79
2018-09-19T21:18:57.282Z,97.71
2018-09-19T21:21:26.434Z,97.49
2018-09-19T21:23:55.694Z,97.02
2018-09-19T21:26:24.879Z,97.59
2018-09-19T21:28:54.097Z,97.78
2018-09-19T21:31:23.354Z,97.96
2018-09-19T21:33:52.522Z,97.56
2018-09-19T21:36:21.680Z,98.08
2018-09-19T21:38:50.915Z,98.35
2018-09-19T21:41:20.095Z,98.75
2018-09-19T21:43:49.326Z,99.26
2018-09-19T21:46:18.516Z,99.36
2018-09-19T21:48:47.817Z,99.55
2018-09-19T21:51:18.553Z,99.52
2018-09-19T21:53:47.761Z,99.16
2018-09-19T21:56:16.953Z,99.26
2018-09-19T21:58:46.210Z,99.24
2018-09-19T22:01:19.532Z,99.02
2018-09-19T22:03:48.678Z,99.24
2018-09-19T22:06:17.882Z,99.11
2018-09-19T22:08:47.094Z,98.90
2018-09-19T22:11:16.476Z,98.99
2018-09-19T22:13:45.741Z,98.94
2018-09-19T22:16:14.941Z,99.02
2018-09-19T22:18:44.177Z,98.61
2018-09-19T22:21:13.389Z,99.04
2018-09-19T22:23:42.982Z,98.86
2018-09-19T22:26:12.327Z,99.03
2018-09-19T22:28:41.505Z,98.47
2018-09-19T22:31:10.754Z,99.07
2018-09-19T22:33:39.890Z,98.92
2018-09-19T22:36:09.048Z,99.25
2018-09-19T22:38:38.748Z,98.69
2018-09-19T22:41:08.165Z,98.75
2018-09-19T22:43:37.317Z,99.13
2018-09-19T22:46:07.067Z,99.09
2018-09-19T22:48:36.261Z,99.51
2018-09-19T22:51:05.562Z,99.60
2018-09-19T22:53:34.905Z,99.96
2018-09-19T22:56:04.106Z,99.83
2018-09-19T22:58:33.321Z,99.60
2018-09-19T23:01:02.554Z,99.55
2018-09-19T23:03:31.765Z,99.51
2018-09-19T23:06:01.420Z,99.69
2018-09-19T23:08:30.653Z,99.67
2018-09-19T23:11:00.377Z,100.00
2018-09-19T23:13:29.606Z,100.00
2018-09-19T23:15:58.829Z,100.00
2018-09-19T23:18:28.047Z,100.00
2018-09-19T23:20:57.348Z,100.00
2018-09-19T23:23:26.540Z,100.00
2018-09-19T23:25:56.064Z,100.00
2018-09-19T23:28:25.274Z,100.00
2018-09-19T23:30:54.469Z,100.00
2018-09-19T23:33:23.781Z,100.00
2018-09-19T23:35:53.026Z,100.00
2018-09-19T23:38:22.286Z,100.00
2018-09-19T23:40:51.562Z,100.00
2018-09-19T23:43:20.805Z,100.00
2018-09-19T23:45:50.287Z,100.00
2018-09-19T23:48:19.484Z,100.00
2018-09-19T23:50:48.704Z,100.00
2018-09-19T23:53:17.945Z,100.00
2018-09-19T23:55:47.226Z,100.00
2018-09-19T23:58:16.416Z,100.00
